Mahres, Tunisia
Current Conditions -  °F | °C
As of 4:00 AM on Saturday 20 Dec 2014 (Local Time) from DTTX Reporting Station
Scattered Clouds Scattered Clouds  
Wind Chill: 52°   Ceiling: Unl
Heat Index: 52°   Visibility: 5mi
Dew Point: 46°   Wind: 5mph
Humidity: 82%   Direction: 280°W
Pressure: 30.33"   Gusts: NA
Location:  34.53°N, 10.5°E
Report Text: DTTX 200300Z 28004KT 8000 SCT020 11/08 Q1027 NOSIG
Loading
Personal Weather Stations






























Interactive Weather Map New forecast layout! Learn more

10-Day Weather Forecast

Advertisements
Track Severe Weather on mobile